Time;durP1;ratioP1;P1;durP2;ratioP2;P2;SDS_P1;SDS_P2;PMS_P1;PMS_P2;Temp;Humidity;BMP_temperature;BMP_pressure;BME280_temperature;BME280_humidity;BME280_pressure;Samples;Min_cycle;Max_cycle;Signal;HPM_P1;HPM_P2
2021/08/26 00:00:02;;;;;;;3.83;3.43;;;;;;;;;;5042410;28;20221;-84
2021/08/26 00:07:58;;;;;;;3.43;3.23;;;;;;;;;;5027925;28;20240;-85
2021/08/26 00:10:30;;;;;;;4.00;3.50;;;;;;;;;;5029878;28;20190;-85
2021/08/26 00:12:59;;;;;;;3.87;3.30;;;;;;;;;;5023455;28;20190;-85
2021/08/26 00:15:26;;;;;;;3.63;3.33;;;;;;;;;;5021478;28;20182;-85
2021/08/26 00:17:52;;;;;;;4.93;3.93;;;;;;;;;;5033870;28;20209;-85
2021/08/26 00:20:19;;;;;;;3.63;3.33;;;;;;;;;;5016784;28;20205;-85
2021/08/26 00:22:45;;;;;;;4.27;3.77;;;;;;;;;;5018064;28;20173;-84
2021/08/26 00:25:11;;;;;;;6.30;4.17;;;;;;;;;;5017824;28;20540;-85
2021/08/26 00:27:37;;;;;;;5.93;4.47;;;;;;;;;;5018168;28;20184;-85
2021/08/26 00:30:04;;;;;;;5.20;4.70;;;;;;;;;;5006382;28;20182;-86
2021/08/26 00:32:30;;;;;;;5.47;4.63;;;;;;;;;;5018791;28;20200;-86
2021/08/26 00:34:56;;;;;;;6.83;4.50;;;;;;;;;;5017427;28;20348;-84
2021/08/26 00:37:24;;;;;;;4.43;4.03;;;;;;;;;;5020465;28;20198;-84
2021/08/26 00:39:50;;;;;;;4.97;4.53;;;;;;;;;;5023552;28;20173;-84
2021/08/26 00:42:16;;;;;;;5.20;4.70;;;;;;;;;;5050980;28;20177;-84
2021/08/26 00:44:42;;;;;;;4.53;4.10;;;;;;;;;;5035084;28;20255;-84
2021/08/26 00:47:09;;;;;;;5.87;5.10;;;;;;;;;;5021626;28;20185;-85
2021/08/26 00:49:35;;;;;;;5.43;5.03;;;;;;;;;;5005816;28;20244;-85
2021/08/26 00:52:01;;;;;;;5.23;4.80;;;;;;;;;;5017889;28;20224;-84
2021/08/26 00:54:28;;;;;;;5.13;4.63;;;;;;;;;;5013757;28;20237;-85
2021/08/26 00:56:58;;;;;;;5.07;4.53;;;;;;;;;;5014866;28;20257;-85
2021/08/26 00:59:26;;;;;;;5.43;4.93;;;;;;;;;;5018668;28;20259;-84
2021/08/26 01:02:10;;;;;;;5.27;4.30;;;;;;;;;;5051405;28;20590;-85
2021/08/26 01:04:56;;;;;;;4.97;4.57;;;;;;;;;;5037134;28;20186;-84
2021/08/26 01:07:37;;;;;;;5.10;4.30;;;;;;;;;;5032202;28;20203;-84
2021/08/26 01:10:08;;;;;;;4.80;4.30;;;;;;;;;;5020182;28;20174;-84
2021/08/26 01:12:35;;;;;;;5.33;4.50;;;;;;;;;;5017428;28;20312;-84
2021/08/26 01:15:01;;;;;;;5.13;4.57;;;;;;;;;;5026663;28;20220;-84
2021/08/26 01:17:28;;;;;;;4.40;3.90;;;;;;;;;;5015464;28;20270;-85
2021/08/26 01:19:59;;;;;;;4.50;4.10;;;;;;;;;;5018075;28;20170;-85
2021/08/26 01:22:27;;;;;;;4.40;4.00;;;;;;;;;;5016276;28;20174;-84
2021/08/26 01:25:02;;;;;;;3.90;3.60;;;;;;;;;;5019167;28;20429;-84
2021/08/26 01:27:36;;;;;;;3.80;3.43;;;;;;;;;;5033422;28;20517;-84
2021/08/26 01:30:04;;;;;;;3.40;3.10;;;;;;;;;;5024898;28;20170;-84
2021/08/26 01:32:30;;;;;;;3.80;2.80;;;;;;;;;;5016654;28;20213;-84
2021/08/26 01:34:57;;;;;;;3.10;2.87;;;;;;;;;;5015262;28;20269;-84
2021/08/26 01:37:24;;;;;;;4.27;3.00;;;;;;;;;;5019248;28;20231;-84
2021/08/26 01:39:50;;;;;;;4.47;3.10;;;;;;;;;;5019056;28;20657;-84
2021/08/26 01:42:17;;;;;;;3.37;3.00;;;;;;;;;;5016703;28;20186;-85
2021/08/26 01:44:43;;;;;;;3.00;2.70;;;;;;;;;;5035374;28;20184;-84
2021/08/26 01:47:15;;;;;;;3.97;2.50;;;;;;;;;;5018913;28;20269;-84
2021/08/26 01:49:42;;;;;;;3.43;2.50;;;;;;;;;;5018164;28;20251;-84
2021/08/26 01:52:08;;;;;;;3.87;2.90;;;;;;;;;;5034680;28;20193;-84
2021/08/26 01:54:35;;;;;;;2.83;2.60;;;;;;;;;;5017763;28;20182;-84
2021/08/26 01:57:01;;;;;;;2.80;2.50;;;;;;;;;;5018126;28;20201;-84
2021/08/26 01:59:27;;;;;;;2.77;2.57;;;;;;;;;;5017700;28;20236;-84
2021/08/26 02:01:54;;;;;;;3.23;2.60;;;;;;;;;;5018965;28;20484;-84
2021/08/26 02:04:20;;;;;;;2.80;2.53;;;;;;;;;;5017789;28;20281;-84
2021/08/26 02:06:46;;;;;;;2.73;2.53;;;;;;;;;;5036023;28;20244;-84
2021/08/26 02:09:12;;;;;;;3.40;2.50;;;;;;;;;;5018358;28;20987;-84
2021/08/26 02:11:38;;;;;;;2.57;2.27;;;;;;;;;;5019038;28;20645;-84
2021/08/26 02:14:04;;;;;;;4.20;2.47;;;;;;;;;;5004691;28;20186;-84
2021/08/26 02:16:34;;;;;;;2.30;2.00;;;;;;;;;;5015786;28;20251;-84
2021/08/26 02:19:00;;;;;;;2.20;2.10;;;;;;;;;;5017568;28;20992;-84
2021/08/26 02:21:28;;;;;;;3.17;2.50;;;;;;;;;;5020563;28;20167;-85
2021/08/26 02:23:54;;;;;;;3.10;2.67;;;;;;;;;;5015749;28;20264;-84
2021/08/26 02:26:21;;;;;;;2.90;2.30;;;;;;;;;;5020399;28;20182;-84
2021/08/26 02:28:52;;;;;;;4.40;2.77;;;;;;;;;;5036096;28;20206;-84
2021/08/26 02:31:18;;;;;;;3.00;2.50;;;;;;;;;;5035184;28;20432;-84
2021/08/26 02:33:44;;;;;;;3.70;2.77;;;;;;;;;;5017767;28;20203;-84
2021/08/26 02:36:11;;;;;;;2.57;2.23;;;;;;;;;;5035185;28;20246;-84
2021/08/26 02:38:37;;;;;;;3.40;2.67;;;;;;;;;;5017849;28;20174;-84
2021/08/26 02:41:03;;;;;;;3.37;3.10;;;;;;;;;;5035530;28;20264;-84
2021/08/26 02:43:29;;;;;;;3.67;2.70;;;;;;;;;;5017822;28;20189;-84
2021/08/26 02:45:55;;;;;;;3.83;2.80;;;;;;;;;;5019292;28;20186;-84
2021/08/26 02:48:21;;;;;;;2.60;2.37;;;;;;;;;;5016422;28;20181;-84
2021/08/26 02:50:47;;;;;;;3.53;2.70;;;;;;;;;;5018303;28;20177;-84
2021/08/26 02:53:16;;;;;;;3.77;3.00;;;;;;;;;;5021329;28;20198;-84
2021/08/26 02:55:42;;;;;;;3.60;2.53;;;;;;;;;;5023553;28;20177;-84
2021/08/26 02:58:08;;;;;;;3.27;2.90;;;;;;;;;;5023030;28;20189;-83
2021/08/26 03:00:36;;;;;;;3.87;3.47;;;;;;;;;;5042469;28;20296;-84
2021/08/26 03:03:02;;;;;;;4.00;3.63;;;;;;;;;;5021601;28;20169;-84
2021/08/26 03:05:28;;;;;;;3.93;2.93;;;;;;;;;;5023623;28;20166;-84
2021/08/26 03:07:56;;;;;;;3.87;3.10;;;;;;;;;;5017926;28;20194;-84
2021/08/26 03:10:22;;;;;;;5.07;3.40;;;;;;;;;;5019122;28;20216;-84
2021/08/26 03:12:48;;;;;;;3.60;3.30;;;;;;;;;;5018838;28;20389;-83
2021/08/26 03:15:14;;;;;;;3.67;3.37;;;;;;;;;;5016785;28;20186;-84
2021/08/26 03:17:40;;;;;;;4.70;3.03;;;;;;;;;;5034707;28;20216;-84
2021/08/26 03:20:07;;;;;;;4.60;3.50;;;;;;;;;;5017078;28;20204;-84
2021/08/26 03:22:33;;;;;;;5.13;3.30;;;;;;;;;;5018550;28;20603;-84
2021/08/26 03:24:59;;;;;;;3.37;3.00;;;;;;;;;;5017361;28;20178;-83
2021/08/26 03:27:25;;;;;;;5.60;3.00;;;;;;;;;;5017106;28;20247;-84
2021/08/26 03:29:52;;;;;;;4.07;3.47;;;;;;;;;;5017070;28;21019;-84
2021/08/26 03:32:18;;;;;;;5.57;3.37;;;;;;;;;;5017409;28;20185;-84
2021/08/26 03:34:44;;;;;;;4.80;3.13;;;;;;;;;;5016608;28;20256;-84
2021/08/26 03:37:10;;;;;;;6.37;3.20;;;;;;;;;;5017285;28;20208;-84
2021/08/26 03:39:36;;;;;;;5.47;3.23;;;;;;;;;;5030027;28;20205;-84
2021/08/26 03:42:03;;;;;;;6.83;3.43;;;;;;;;;;5014895;28;20178;-84
2021/08/26 03:44:29;;;;;;;5.40;3.50;;;;;;;;;;5013109;28;20194;-84
2021/08/26 03:46:58;;;;;;;4.93;2.90;;;;;;;;;;5016295;28;20182;-84
2021/08/26 03:49:24;;;;;;;5.43;3.20;;;;;;;;;;5018045;28;20181;-84
2021/08/26 03:51:50;;;;;;;5.03;3.57;;;;;;;;;;5034669;28;20198;-85
2021/08/26 03:54:16;;;;;;;4.00;3.20;;;;;;;;;;5017440;28;20212;-84
2021/08/26 03:56:43;;;;;;;6.20;3.67;;;;;;;;;;5034667;28;20246;-84
2021/08/26 03:59:11;;;;;;;3.87;3.10;;;;;;;;;;5034930;28;20633;-84
2021/08/26 04:01:38;;;;;;;5.30;3.50;;;;;;;;;;5035853;28;20185;-84
2021/08/26 04:04:07;;;;;;;3.80;2.83;;;;;;;;;;5019551;28;20194;-84
2021/08/26 04:06:33;;;;;;;3.93;2.80;;;;;;;;;;5036983;28;20206;-84
2021/08/26 04:08:59;;;;;;;5.13;2.83;;;;;;;;;;5019369;28;20197;-84
2021/08/26 04:11:26;;;;;;;3.63;2.97;;;;;;;;;;5037464;28;20579;-84
2021/08/26 04:13:52;;;;;;;5.33;3.13;;;;;;;;;;5021566;28;20208;-84
2021/08/26 04:16:18;;;;;;;5.33;3.63;;;;;;;;;;5034597;28;20258;-85
2021/08/26 04:18:44;;;;;;;6.23;2.97;;;;;;;;;;5027781;28;20166;-84
2021/08/26 04:21:10;;;;;;;5.13;3.43;;;;;;;;;;5019383;28;20201;-84
2021/08/26 04:23:36;;;;;;;6.50;3.07;;;;;;;;;;5034358;28;20174;-84
2021/08/26 04:26:02;;;;;;;4.43;2.83;;;;;;;;;;5033886;28;20190;-84
2021/08/26 04:28:28;;;;;;;5.90;3.23;;;;;;;;;;5034230;28;20189;-83
2021/08/26 04:30:54;;;;;;;6.80;3.67;;;;;;;;;;5034470;28;20244;-83
2021/08/26 04:33:21;;;;;;;3.77;3.00;;;;;;;;;;5032575;28;20177;-84
2021/08/26 04:35:47;;;;;;;6.33;3.03;;;;;;;;;;5031477;28;20177;-83
2021/08/26 04:38:13;;;;;;;7.03;4.70;;;;;;;;;;5029129;28;20231;-83
2021/08/26 04:40:39;;;;;;;7.37;3.30;;;;;;;;;;5035878;28;20193;-86
2021/08/26 04:43:05;;;;;;;6.40;3.00;;;;;;;;;;5022038;28;20235;-84
2021/08/26 04:45:31;;;;;;;6.53;3.37;;;;;;;;;;5038970;28;20187;-85
2021/08/26 04:47:58;;;;;;;5.20;3.23;;;;;;;;;;5036940;28;20178;-84
2021/08/26 04:50:24;;;;;;;7.30;3.50;;;;;;;;;;5019143;28;20194;-84
2021/08/26 04:52:50;;;;;;;5.93;3.03;;;;;;;;;;5036340;28;20189;-84
2021/08/26 04:55:16;;;;;;;5.47;2.93;;;;;;;;;;5026098;28;20187;-84
2021/08/26 04:57:42;;;;;;;7.80;3.07;;;;;;;;;;5032241;28;20275;-85
2021/08/26 05:00:08;;;;;;;5.87;4.37;;;;;;;;;;5008898;28;20572;-84
2021/08/26 05:02:37;;;;;;;8.33;3.60;;;;;;;;;;5004978;28;20320;-85
2021/08/26 05:05:09;;;;;;;5.17;2.87;;;;;;;;;;4994767;28;20249;-84
2021/08/26 05:07:35;;;;;;;4.23;2.93;;;;;;;;;;4995275;28;20254;-83
2021/08/26 05:10:01;;;;;;;6.43;3.03;;;;;;;;;;5013367;28;20193;-84
2021/08/26 05:12:30;;;;;;;6.27;3.20;;;;;;;;;;4996319;28;20177;-84
2021/08/26 05:14:56;;;;;;;5.57;3.03;;;;;;;;;;5014326;28;20186;-83
2021/08/26 05:17:23;;;;;;;8.37;4.93;;;;;;;;;;5014656;28;20206;-83
2021/08/26 05:19:49;;;;;;;4.47;3.13;;;;;;;;;;5011884;28;20187;-84
2021/08/26 05:22:15;;;;;;;5.27;2.77;;;;;;;;;;4996361;28;20650;-83
2021/08/26 05:24:41;;;;;;;2.97;2.57;;;;;;;;;;5013607;28;20240;-83
2021/08/26 05:27:07;;;;;;;5.37;3.03;;;;;;;;;;4996370;28;20258;-87
2021/08/26 05:29:33;;;;;;;7.93;3.43;;;;;;;;;;5012855;28;20252;-84
2021/08/26 05:32:00;;;;;;;9.17;4.13;;;;;;;;;;4996428;28;20179;-82
2021/08/26 05:34:27;;;;;;;11.33;4.07;;;;;;;;;;4996192;28;20190;-82
2021/08/26 05:36:53;;;;;;;7.90;3.10;;;;;;;;;;5012187;28;20212;-79
2021/08/26 05:39:20;;;;;;;7.00;3.77;;;;;;;;;;4995030;28;20241;-79
2021/08/26 05:41:46;;;;;;;10.17;3.13;;;;;;;;;;4995312;28;20187;-84
2021/08/26 05:44:16;;;;;;;9.20;4.20;;;;;;;;;;4994708;28;20755;-83
2021/08/26 05:46:42;;;;;;;8.40;4.00;;;;;;;;;;4980143;28;20191;-83
2021/08/26 05:49:09;;;;;;;7.53;4.13;;;;;;;;;;4979004;28;20183;-83
2021/08/26 05:51:35;;;;;;;7.20;3.63;;;;;;;;;;4995382;28;20221;-83
2021/08/26 05:54:03;;;;;;;7.50;4.17;;;;;;;;;;4996728;28;20186;-83
2021/08/26 05:56:30;;;;;;;5.60;3.57;;;;;;;;;;4996661;28;20202;-84
2021/08/26 05:58:56;;;;;;;8.45;3.25;;;;;;;;;;5021542;28;20084;-83
2021/08/26 06:01:23;;;;;;;7.77;3.13;;;;;;;;;;5018265;28;20197;-84
2021/08/26 06:03:51;;;;;;;6.57;3.00;;;;;;;;;;5017026;28;20197;-84
2021/08/26 06:06:17;;;;;;;7.50;3.17;;;;;;;;;;5014789;28;20217;-83
2021/08/26 06:08:45;;;;;;;4.63;2.73;;;;;;;;;;5033962;28;20221;-83
2021/08/26 06:11:11;;;;;;;9.93;3.43;;;;;;;;;;5027461;28;20185;-82
2021/08/26 06:13:37;;;;;;;6.67;3.30;;;;;;;;;;5014179;28;20186;-83
2021/08/26 06:16:03;;;;;;;7.53;3.03;;;;;;;;;;5015662;28;20206;-83
2021/08/26 06:18:30;;;;;;;5.13;2.73;;;;;;;;;;5032503;28;20182;-84
2021/08/26 06:20:57;;;;;;;6.23;3.10;;;;;;;;;;5014445;28;20190;-84
2021/08/26 06:23:23;;;;;;;5.43;3.20;;;;;;;;;;5018011;28;20174;-83
2021/08/26 06:25:49;;;;;;;8.47;3.20;;;;;;;;;;5019664;28;20185;-83
2021/08/26 06:28:15;;;;;;;5.47;2.80;;;;;;;;;;5020061;28;20213;-83
2021/08/26 06:30:41;;;;;;;6.33;2.97;;;;;;;;;;5018781;28;20191;-83
2021/08/26 06:33:08;;;;;;;9.93;3.13;;;;;;;;;;5036792;28;20628;-83
2021/08/26 06:35:37;;;;;;;6.03;3.53;;;;;;;;;;5001843;28;20244;-83
2021/08/26 06:38:03;;;;;;;66.67;8.93;;;;;;;;;;5019275;28;20241;-84
2021/08/26 06:40:29;;;;;;;30.83;5.67;;;;;;;;;;5036160;28;20621;-83
2021/08/26 06:42:56;;;;;;;22.13;4.10;;;;;;;;;;5035433;28;20189;-84
2021/08/26 06:45:22;;;;;;;18.97;4.70;;;;;;;;;;5018757;28;20292;-83
2021/08/26 06:47:48;;;;;;;9.73;4.10;;;;;;;;;;5014349;28;20186;-84
2021/08/26 06:50:14;;;;;;;14.67;4.30;;;;;;;;;;5017946;28;20181;-84
2021/08/26 06:52:40;;;;;;;17.93;3.60;;;;;;;;;;5020265;28;20182;-84
2021/08/26 06:55:07;;;;;;;13.97;3.83;;;;;;;;;;5039519;28;20227;-85
2021/08/26 06:57:36;;;;;;;9.83;3.40;;;;;;;;;;5023700;28;20347;-84
2021/08/26 07:00:02;;;;;;;9.90;4.23;;;;;;;;;;5022592;28;20236;-85
2021/08/26 07:02:28;;;;;;;6.87;3.57;;;;;;;;;;5022343;28;20204;-85
2021/08/26 07:04:54;;;;;;;8.30;3.53;;;;;;;;;;5021403;28;20170;-85
2021/08/26 07:07:20;;;;;;;15.23;4.23;;;;;;;;;;5022147;28;20194;-85
2021/08/26 07:09:47;;;;;;;5.77;3.33;;;;;;;;;;5039638;28;20189;-85
2021/08/26 07:12:13;;;;;;;9.97;4.03;;;;;;;;;;5038591;28;20178;-85
2021/08/26 07:14:40;;;;;;;8.93;3.50;;;;;;;;;;5021041;28;20894;-85
2021/08/26 07:17:07;;;;;;;9.17;2.97;;;;;;;;;;5021374;28;20210;-85
2021/08/26 07:19:33;;;;;;;6.53;3.27;;;;;;;;;;5020572;28;20296;-85
2021/08/26 07:21:59;;;;;;;7.23;3.47;;;;;;;;;;5037535;28;20188;-85
2021/08/26 07:24:25;;;;;;;6.37;2.93;;;;;;;;;;5037346;28;20202;-85
2021/08/26 07:26:52;;;;;;;6.47;3.60;;;;;;;;;;5034805;28;20594;-85
2021/08/26 07:29:18;;;;;;;6.60;3.53;;;;;;;;;;5016384;28;20185;-85
2021/08/26 07:31:46;;;;;;;8.90;4.30;;;;;;;;;;5016687;28;20182;-85
2021/08/26 07:34:12;;;;;;;7.83;4.00;;;;;;;;;;5015684;28;20561;-84
2021/08/26 07:36:39;;;;;;;6.13;3.17;;;;;;;;;;5016469;28;20197;-85
2021/08/26 07:39:05;;;;;;;12.63;4.40;;;;;;;;;;5034819;28;20249;-85
2021/08/26 07:41:31;;;;;;;7.57;3.23;;;;;;;;;;5015789;28;20178;-85
2021/08/26 07:43:58;;;;;;;12.87;4.03;;;;;;;;;;5035422;28;20170;-85
2021/08/26 07:46:24;;;;;;;10.80;3.77;;;;;;;;;;5016516;28;20189;-84
2021/08/26 07:48:50;;;;;;;9.23;3.90;;;;;;;;;;5033431;28;20174;-85
2021/08/26 07:51:17;;;;;;;7.57;3.10;;;;;;;;;;5033379;28;20208;-85
2021/08/26 07:53:43;;;;;;;9.07;3.90;;;;;;;;;;5017558;28;20215;-85
2021/08/26 07:56:09;;;;;;;8.40;3.73;;;;;;;;;;5017166;28;20214;-84
2021/08/26 07:58:35;;;;;;;8.60;3.73;;;;;;;;;;5016918;28;20220;-85
2021/08/26 08:01:04;;;;;;;6.80;2.97;;;;;;;;;;5030299;28;20186;-85
2021/08/26 08:03:32;;;;;;;5.77;2.87;;;;;;;;;;5017255;28;20185;-85
2021/08/26 08:05:59;;;;;;;5.53;3.63;;;;;;;;;;5020273;28;20284;-85
2021/08/26 08:08:25;;;;;;;7.10;3.03;;;;;;;;;;5013752;28;20179;-85
2021/08/26 08:10:52;;;;;;;5.70;3.13;;;;;;;;;;5027978;28;20524;-85
2021/08/26 08:13:19;;;;;;;5.37;3.07;;;;;;;;;;5034469;28;20265;-85
2021/08/26 08:15:45;;;;;;;5.77;3.60;;;;;;;;;;5016323;28;20190;-84
2021/08/26 08:18:14;;;;;;;6.53;3.80;;;;;;;;;;5018400;28;20208;-85
2021/08/26 08:20:41;;;;;;;5.13;3.57;;;;;;;;;;5034080;28;20196;-85
2021/08/26 08:23:07;;;;;;;7.87;3.33;;;;;;;;;;5032595;28;20180;-84
2021/08/26 08:25:33;;;;;;;6.03;3.13;;;;;;;;;;5032548;28;20190;-84
2021/08/26 08:27:59;;;;;;;8.60;3.40;;;;;;;;;;5033153;28;20192;-84
2021/08/26 08:30:26;;;;;;;5.57;3.23;;;;;;;;;;5024770;28;20340;-83
2021/08/26 08:32:54;;;;;;;7.43;3.33;;;;;;;;;;5017706;28;20181;-85
2021/08/26 08:35:20;;;;;;;5.57;3.43;;;;;;;;;;5016343;28;20193;-84
2021/08/26 08:37:47;;;;;;;6.47;2.87;;;;;;;;;;5000182;28;20215;-84
2021/08/26 08:40:13;;;;;;;7.03;4.50;;;;;;;;;;5016121;28;20253;-85
2021/08/26 08:42:39;;;;;;;6.30;2.77;;;;;;;;;;5033963;28;20186;-84
2021/08/26 08:45:09;;;;;;;6.07;3.13;;;;;;;;;;5018151;28;20190;-84
2021/08/26 08:47:36;;;;;;;6.73;3.80;;;;;;;;;;5014774;28;20325;-85
2021/08/26 08:50:03;;;;;;;6.50;2.90;;;;;;;;;;5021745;28;20189;-84
2021/08/26 08:52:29;;;;;;;6.33;3.30;;;;;;;;;;5023943;28;20900;-84
2021/08/26 08:54:55;;;;;;;4.73;2.90;;;;;;;;;;5016520;28;20199;-84
2021/08/26 08:57:21;;;;;;;6.43;3.60;;;;;;;;;;5017975;28;20653;-84
2021/08/26 08:59:48;;;;;;;4.73;2.60;;;;;;;;;;5015055;28;20601;-84
2021/08/26 09:02:14;;;;;;;4.33;2.80;;;;;;;;;;4984360;28;20182;-84
2021/08/26 09:04:58;;;;;;;5.37;3.27;;;;;;;;;;4999821;28;20190;-85
2021/08/26 09:07:36;;;;;;;7.40;3.67;;;;;;;;;;4997718;28;20194;-85
2021/08/26 09:10:03;;;;;;;4.80;2.83;;;;;;;;;;5004752;28;20182;-85
2021/08/26 09:12:45;;;;;;;4.57;2.90;;;;;;;;;;5006290;28;20288;-84
2021/08/26 09:15:20;;;;;;;6.17;3.00;;;;;;;;;;5004153;28;20189;-84
2021/08/26 09:17:47;;;;;;;4.07;2.70;;;;;;;;;;5005836;28;20224;-84
2021/08/26 09:20:21;;;;;;;4.90;2.67;;;;;;;;;;4996657;28;20193;-85
2021/08/26 09:22:48;;;;;;;8.00;3.83;;;;;;;;;;4998513;28;20490;-85
2021/08/26 09:25:26;;;;;;;4.20;2.40;;;;;;;;;;5012335;28;20250;-85
2021/08/26 09:27:53;;;;;;;5.83;2.90;;;;;;;;;;5011724;28;20262;-85
2021/08/26 09:30:20;;;;;;;4.30;2.70;;;;;;;;;;5004654;28;20609;-85
2021/08/26 09:32:51;;;;;;;4.97;2.73;;;;;;;;;;4995307;28;20194;-84
2021/08/26 09:35:21;;;;;;;4.70;2.70;;;;;;;;;;5002026;28;20650;-85
2021/08/26 09:37:49;;;;;;;6.20;2.90;;;;;;;;;;4993805;28;20273;-84
2021/08/26 09:40:17;;;;;;;4.47;2.67;;;;;;;;;;5003810;28;20186;-85
2021/08/26 09:42:43;;;;;;;5.17;2.80;;;;;;;;;;4995689;28;20182;-85
2021/08/26 09:45:20;;;;;;;5.50;2.87;;;;;;;;;;5001771;28;20554;-85
2021/08/26 09:48:05;;;;;;;5.83;3.23;;;;;;;;;;5006244;28;20178;-84
2021/08/26 09:50:40;;;;;;;5.17;2.90;;;;;;;;;;4994735;28;20179;-85
2021/08/26 09:53:06;;;;;;;5.90;3.00;;;;;;;;;;4995634;28;20516;-83
2021/08/26 09:55:51;;;;;;;4.03;2.90;;;;;;;;;;4995122;28;20204;-84
2021/08/26 09:58:18;;;;;;;4.20;3.07;;;;;;;;;;5000724;28;20208;-84
2021/08/26 10:00:45;;;;;;;6.73;2.73;;;;;;;;;;5019489;28;20184;-84
2021/08/26 10:03:14;;;;;;;4.40;2.67;;;;;;;;;;5035827;28;20182;-84
2021/08/26 10:05:44;;;;;;;3.93;2.67;;;;;;;;;;5028924;28;20648;-84
2021/08/26 10:08:11;;;;;;;3.53;2.20;;;;;;;;;;5052596;28;20244;-85
2021/08/26 10:10:39;;;;;;;4.90;2.97;;;;;;;;;;5036493;28;20182;-85
2021/08/26 10:13:05;;;;;;;6.60;2.90;;;;;;;;;;5018987;28;20185;-85
2021/08/26 10:15:32;;;;;;;4.90;2.70;;;;;;;;;;5018538;28;20272;-85
2021/08/26 10:17:59;;;;;;;5.90;2.70;;;;;;;;;;5035762;28;20210;-85
2021/08/26 10:20:25;;;;;;;3.87;2.70;;;;;;;;;;5017807;28;20181;-84
2021/08/26 10:22:52;;;;;;;5.43;2.97;;;;;;;;;;5036146;28;20181;-85
2021/08/26 10:25:21;;;;;;;6.87;3.63;;;;;;;;;;5018610;28;20197;-85
2021/08/26 10:27:48;;;;;;;7.47;2.70;;;;;;;;;;5038795;28;20174;-85
2021/08/26 10:30:28;;;;;;;5.33;2.43;;;;;;;;;;5025755;28;20209;-85
2021/08/26 10:33:12;;;;;;;6.30;3.00;;;;;;;;;;5043575;28;20273;-85
2021/08/26 10:35:52;;;;;;;7.00;2.60;;;;;;;;;;5018138;28;20268;-85
2021/08/26 10:38:26;;;;;;;4.33;2.60;;;;;;;;;;5018450;28;20661;-85
2021/08/26 10:40:52;;;;;;;6.57;2.90;;;;;;;;;;5030426;28;20185;-85
2021/08/26 10:43:38;;;;;;;8.60;3.03;;;;;;;;;;5036382;28;20240;-85
2021/08/26 10:46:05;;;;;;;4.97;2.53;;;;;;;;;;5033186;28;20197;-85
2021/08/26 10:48:32;;;;;;;6.90;2.67;;;;;;;;;;5054451;28;20174;-85
2021/08/26 10:51:14;;;;;;;7.17;3.27;;;;;;;;;;5037203;28;20178;-87
2021/08/26 10:53:41;;;;;;;7.67;3.07;;;;;;;;;;5028415;28;20174;-85
2021/08/26 10:56:25;;;;;;;6.03;2.83;;;;;;;;;;5018474;28;20177;-84
2021/08/26 10:58:53;;;;;;;9.07;3.60;;;;;;;;;;5017902;28;20736;-86
2021/08/26 11:01:28;;;;;;;5.97;3.10;;;;;;;;;;5030766;28;20185;-85
2021/08/26 11:04:04;;;;;;;6.77;3.23;;;;;;;;;;5007152;28;20626;-84
2021/08/26 11:06:30;;;;;;;7.00;3.70;;;;;;;;;;5015579;28;20217;-85
2021/08/26 11:08:59;;;;;;;6.03;3.13;;;;;;;;;;5016003;28;20251;-85
2021/08/26 11:13:52;;;;;;;5.10;2.63;;;;;;;;;;5035079;28;20251;-85
2021/08/26 11:16:24;;;;;;;4.13;2.83;;;;;;;;;;5031896;28;20202;-85
2021/08/26 11:18:54;;;;;;;4.80;3.10;;;;;;;;;;5006494;28;20171;-84
2021/08/26 11:21:39;;;;;;;3.43;2.93;;;;;;;;;;5029678;28;20170;-85
2021/08/26 11:24:05;;;;;;;6.67;3.37;;;;;;;;;;5017406;28;20174;-86
2021/08/26 11:26:44;;;;;;;4.67;2.30;;;;;;;;;;5008917;28;20185;-85
2021/08/26 11:29:25;;;;;;;5.23;2.90;;;;;;;;;;4997578;28;20649;-85
2021/08/26 11:32:05;;;;;;;5.13;2.90;;;;;;;;;;5023497;28;20174;-85
2021/08/26 11:34:33;;;;;;;4.97;2.97;;;;;;;;;;5016107;28;20494;-86
2021/08/26 11:36:59;;;;;;;4.83;2.77;;;;;;;;;;5015422;28;20214;-86
2021/08/26 11:39:26;;;;;;;3.97;2.93;;;;;;;;;;5036327;28;20614;-85
2021/08/26 11:41:52;;;;;;;7.13;3.03;;;;;;;;;;5035452;28;20180;-86
2021/08/26 11:44:18;;;;;;;4.50;3.00;;;;;;;;;;5018164;28;20173;-85
2021/08/26 11:46:44;;;;;;;6.30;3.33;;;;;;;;;;5018935;28;20181;-85
2021/08/26 11:49:10;;;;;;;5.37;2.57;;;;;;;;;;5036344;28;20522;-85
2021/08/26 11:51:36;;;;;;;5.43;3.30;;;;;;;;;;5032812;28;20273;-85
2021/08/26 11:54:12;;;;;;;4.47;2.30;;;;;;;;;;5015311;28;20174;-85
2021/08/26 11:56:46;;;;;;;3.90;2.70;;;;;;;;;;5034533;28;20240;-85
2021/08/26 11:59:25;;;;;;;4.17;3.53;;;;;;;;;;5018650;28;20710;-85
2021/08/26 12:01:51;;;;;;;8.33;3.10;;;;;;;;;;5034095;28;20178;-85
2021/08/26 12:04:17;;;;;;;4.47;3.30;;;;;;;;;;5034582;28;21010;-85
2021/08/26 12:06:49;;;;;;;3.73;3.03;;;;;;;;;;5034440;28;20606;-86
2021/08/26 12:09:15;;;;;;;6.37;3.10;;;;;;;;;;5018633;28;20281;-85
2021/08/26 12:11:41;;;;;;;4.83;2.90;;;;;;;;;;5018356;28;20197;-86
2021/08/26 12:14:09;;;;;;;6.50;3.03;;;;;;;;;;5033281;28;20190;-85
2021/08/26 12:16:35;;;;;;;7.03;2.93;;;;;;;;;;5026042;28;20210;-85
2021/08/26 12:19:04;;;;;;;4.57;2.67;;;;;;;;;;5016061;28;20194;-84
2021/08/26 12:21:30;;;;;;;4.77;3.10;;;;;;;;;;5028288;28;20205;-84
2021/08/26 12:23:56;;;;;;;4.97;2.83;;;;;;;;;;5016516;28;20188;-84
2021/08/26 12:26:22;;;;;;;5.37;2.67;;;;;;;;;;5033341;28;20200;-84
2021/08/26 12:29:01;;;;;;;5.00;2.90;;;;;;;;;;5026389;28;20195;-84
2021/08/26 12:31:28;;;;;;;3.93;2.67;;;;;;;;;;5019798;28;20185;-84
2021/08/26 12:34:21;;;;;;;5.03;3.10;;;;;;;;;;5018582;28;20186;-86
2021/08/26 12:36:47;;;;;;;5.60;2.83;;;;;;;;;;5027378;28;20213;-85
2021/08/26 12:39:31;;;;;;;6.53;3.03;;;;;;;;;;5017223;28;20417;-85
2021/08/26 12:42:04;;;;;;;4.27;3.10;;;;;;;;;;5020641;28;20227;-85
2021/08/26 12:44:30;;;;;;;4.33;2.57;;;;;;;;;;5018389;28;20255;-85
2021/08/26 12:46:57;;;;;;;6.50;2.57;;;;;;;;;;5014888;28;20181;-86
2021/08/26 12:49:23;;;;;;;2.53;2.17;;;;;;;;;;5014932;28;20171;-85
2021/08/26 12:51:53;;;;;;;3.03;2.40;;;;;;;;;;5032840;28;20178;-84
2021/08/26 12:54:20;;;;;;;2.93;2.60;;;;;;;;;;5015031;28;20190;-84
2021/08/26 12:56:54;;;;;;;3.33;2.60;;;;;;;;;;5014863;28;20201;-85
2021/08/26 12:59:22;;;;;;;4.20;2.93;;;;;;;;;;5015105;28;20225;-85
2021/08/26 13:01:50;;;;;;;4.73;2.87;;;;;;;;;;4999423;28;20197;-84
2021/08/26 13:04:23;;;;;;;5.50;2.83;;;;;;;;;;5004173;28;20659;-84
2021/08/26 13:06:56;;;;;;;6.00;2.90;;;;;;;;;;5029873;28;20570;-84
2021/08/26 13:09:36;;;;;;;6.70;2.83;;;;;;;;;;5014738;28;20246;-84
2021/08/26 13:12:04;;;;;;;3.57;2.67;;;;;;;;;;5014316;28;20177;-84
2021/08/26 13:14:43;;;;;;;2.20;2.00;;;;;;;;;;5013973;28;20225;-83
2021/08/26 13:17:13;;;;;;;3.17;2.53;;;;;;;;;;5027550;28;20212;-83
2021/08/26 13:19:40;;;;;;;3.43;2.47;;;;;;;;;;5014193;28;20953;-84
2021/08/26 13:22:18;;;;;;;5.97;2.53;;;;;;;;;;5013968;28;20268;-83
2021/08/26 13:24:45;;;;;;;3.40;2.73;;;;;;;;;;5032356;28;20702;-85
2021/08/26 13:27:11;;;;;;;4.53;2.80;;;;;;;;;;5014169;28;20177;-84
2021/08/26 13:29:37;;;;;;;2.63;2.43;;;;;;;;;;5014847;28;20498;-85
2021/08/26 13:32:04;;;;;;;4.30;2.80;;;;;;;;;;5013697;28;20189;-84
2021/08/26 13:34:30;;;;;;;5.30;3.10;;;;;;;;;;5013723;28;20190;-83
2021/08/26 13:36:56;;;;;;;8.00;3.33;;;;;;;;;;5003460;28;20670;-83
2021/08/26 13:39:22;;;;;;;5.20;3.00;;;;;;;;;;5012950;28;20190;-85
2021/08/26 13:41:48;;;;;;;4.47;2.40;;;;;;;;;;5015108;28;20836;-84
2021/08/26 13:44:14;;;;;;;5.50;3.33;;;;;;;;;;5013646;28;20209;-86
2021/08/26 13:46:42;;;;;;;2.50;2.30;;;;;;;;;;5032546;28;20190;-84
2021/08/26 13:49:08;;;;;;;2.97;2.53;;;;;;;;;;5033021;28;20197;-84
2021/08/26 13:51:35;;;;;;;6.47;2.77;;;;;;;;;;5033371;28;20232;-85
2021/08/26 13:54:01;;;;;;;5.13;2.43;;;;;;;;;;5017271;28;20201;-86
2021/08/26 13:56:27;;;;;;;4.27;2.77;;;;;;;;;;5013990;28;20194;-85
2021/08/26 13:58:54;;;;;;;5.67;2.50;;;;;;;;;;5031303;28;20213;-84
2021/08/26 14:01:20;;;;;;;6.60;4.03;;;;;;;;;;5014067;28;20213;-85
2021/08/26 14:03:46;;;;;;;3.00;2.50;;;;;;;;;;5005369;28;20178;-84
2021/08/26 14:06:12;;;;;;;3.50;2.30;;;;;;;;;;5012601;28;20216;-82
2021/08/26 14:08:39;;;;;;;4.43;2.83;;;;;;;;;;5014045;28;20186;-83
2021/08/26 14:11:05;;;;;;;5.53;2.93;;;;;;;;;;5013880;28;20614;-84
2021/08/26 14:13:32;;;;;;;3.53;2.60;;;;;;;;;;5013354;28;20239;-84
2021/08/26 14:15:58;;;;;;;6.37;3.00;;;;;;;;;;5013604;28;20232;-83
2021/08/26 14:18:24;;;;;;;4.17;3.00;;;;;;;;;;5013558;28;20209;-83
2021/08/26 14:20:50;;;;;;;3.97;2.40;;;;;;;;;;5013584;28;20182;-84
2021/08/26 14:23:16;;;;;;;3.13;2.93;;;;;;;;;;5026940;28;20190;-83
2021/08/26 14:25:42;;;;;;;2.97;2.33;;;;;;;;;;5013486;28;20178;-83
2021/08/26 14:28:09;;;;;;;3.67;2.83;;;;;;;;;;5032693;28;20632;-83
2021/08/26 14:30:35;;;;;;;4.63;2.30;;;;;;;;;;5013449;28;20198;-84
2021/08/26 14:33:01;;;;;;;4.43;2.43;;;;;;;;;;5015379;28;20193;-83
2021/08/26 14:35:27;;;;;;;2.53;2.20;;;;;;;;;;5035078;28;20183;-83
2021/08/26 14:37:53;;;;;;;3.33;2.57;;;;;;;;;;5015589;28;20202;-83
2021/08/26 14:40:19;;;;;;;3.83;2.50;;;;;;;;;;5012573;28;20225;-83
2021/08/26 14:42:45;;;;;;;4.13;2.47;;;;;;;;;;5017555;28;20182;-83
2021/08/26 14:45:11;;;;;;;4.93;2.60;;;;;;;;;;5022252;28;20267;-82
2021/08/26 14:47:37;;;;;;;2.90;2.47;;;;;;;;;;5020858;28;20249;-83
2021/08/26 14:50:03;;;;;;;7.80;2.90;;;;;;;;;;5020252;28;20185;-83
2021/08/26 14:52:30;;;;;;;3.53;2.43;;;;;;;;;;5037059;28;20586;-82
2021/08/26 14:54:56;;;;;;;3.53;2.43;;;;;;;;;;5020719;28;20609;-82